Time;durP1;ratioP1;P1;durP2;ratioP2;P2;SDS_P1;SDS_P2;PMS_P1;PMS_P2;Temp;Humidity;BMP_temperature;BMP_pressure;BME280_temperature;BME280_humidity;BME280_pressure;Samples;Min_cycle;Max_cycle;Signal;HPM_P1;HPM_P2
2022/06/13 00:01:36;;;;;;;2.87;2.47;;;;;;;;;;5067121;28;20206;-53
2022/06/13 00:04:03;;;;;;;4.63;3.03;;;;;;;;;;5065680;28;20206;-53
2022/06/13 00:06:29;;;;;;;3.40;2.87;;;;;;;;;;5086825;28;20333;-53
2022/06/13 00:08:56;;;;;;;3.33;3.03;;;;;;;;;;5087249;28;20190;-52
2022/06/13 00:11:24;;;;;;;4.20;3.20;;;;;;;;;;5086274;28;20787;-53
2022/06/13 00:13:53;;;;;;;5.63;2.87;;;;;;;;;;5070345;28;20656;-53
2022/06/13 00:16:19;;;;;;;4.23;3.30;;;;;;;;;;5086346;28;20186;-53
2022/06/13 00:18:49;;;;;;;5.37;3.40;;;;;;;;;;5085703;28;20315;-52
2022/06/13 00:21:20;;;;;;;3.90;2.83;;;;;;;;;;5075716;28;20804;-52
2022/06/13 00:23:47;;;;;;;3.07;2.80;;;;;;;;;;5062192;28;20199;-52
2022/06/13 00:26:13;;;;;;;3.80;2.70;;;;;;;;;;5068386;28;20200;-53
2022/06/13 00:28:39;;;;;;;4.93;2.90;;;;;;;;;;5086095;28;20514;-53
2022/06/13 00:31:05;;;;;;;3.27;2.97;;;;;;;;;;5086504;28;20199;-53
2022/06/13 00:33:31;;;;;;;4.67;2.63;;;;;;;;;;5050775;28;20613;-52
2022/06/13 00:35:57;;;;;;;4.57;2.80;;;;;;;;;;5083976;28;20172;-51
2022/06/13 00:38:23;;;;;;;3.43;2.90;;;;;;;;;;5068626;28;20192;-52
2022/06/13 00:40:50;;;;;;;3.43;2.63;;;;;;;;;;5085580;28;20610;-52
2022/06/13 00:43:17;;;;;;;2.77;2.57;;;;;;;;;;5086461;28;20211;-53
2022/06/13 00:45:43;;;;;;;4.40;3.20;;;;;;;;;;5081730;28;20200;-53
2022/06/13 00:48:12;;;;;;;3.37;2.87;;;;;;;;;;5084776;28;20484;-53
2022/06/13 00:50:39;;;;;;;3.00;2.70;;;;;;;;;;5085634;28;20200;-53
2022/06/13 00:53:31;;;;;;;3.73;3.00;;;;;;;;;;5087865;28;20274;-52
2022/06/13 00:56:00;;;;;;;3.27;2.70;;;;;;;;;;5082956;28;20625;-53
2022/06/13 00:58:29;;;;;;;3.50;3.07;;;;;;;;;;5085721;28;20223;-52
2022/06/13 01:00:57;;;;;;;3.43;3.10;;;;;;;;;;5080185;28;20184;-52
2022/06/13 01:03:25;;;;;;;2.77;2.47;;;;;;;;;;5085590;28;20182;-53
2022/06/13 01:05:51;;;;;;;4.50;3.10;;;;;;;;;;5096819;28;20204;-52
2022/06/13 01:08:19;;;;;;;5.77;3.23;;;;;;;;;;5076287;28;20176;-52
2022/06/13 01:13:39;;;;;;;3.57;3.13;;;;;;;;;;5077862;28;20334;-53
2022/06/13 01:16:14;;;;;;;4.67;2.30;;;;;;;;;;5067890;28;20201;-52
2022/06/13 01:18:43;;;;;;;3.53;2.97;;;;;;;;;;5085293;28;20565;-53
2022/06/13 01:21:31;;;;;;;2.80;2.50;;;;;;;;;;5087716;28;20261;-53
2022/06/13 01:24:16;;;;;;;3.23;2.80;;;;;;;;;;5085226;28;20190;-52
2022/06/13 01:27:01;;;;;;;3.80;2.67;;;;;;;;;;5087661;28;20203;-52
2022/06/13 01:29:29;;;;;;;4.60;2.87;;;;;;;;;;5085256;28;20179;-52
2022/06/13 01:32:14;;;;;;;2.73;2.47;;;;;;;;;;5084777;28;20171;-53
2022/06/13 01:35:06;;;;;;;5.67;3.00;;;;;;;;;;5084513;28;20179;-52
2022/06/13 01:37:32;;;;;;;4.67;3.50;;;;;;;;;;5078908;28;20261;-53
2022/06/13 01:40:17;;;;;;;3.60;2.90;;;;;;;;;;5086041;28;20509;-53
2022/06/13 01:43:02;;;;;;;3.00;2.70;;;;;;;;;;5085211;28;20183;-54
2022/06/13 01:45:31;;;;;;;3.23;2.83;;;;;;;;;;5080550;28;20606;-53
2022/06/13 01:48:07;;;;;;;3.20;2.70;;;;;;;;;;5082790;28;20211;-53
2022/06/13 01:50:36;;;;;;;3.03;2.77;;;;;;;;;;5085091;28;20224;-54
2022/06/13 01:53:11;;;;;;;3.17;2.87;;;;;;;;;;5084124;28;20176;-50
2022/06/13 01:55:45;;;;;;;2.87;2.60;;;;;;;;;;5084701;28;20641;-51
2022/06/13 01:58:23;;;;;;;2.97;2.77;;;;;;;;;;5082997;28;20597;-51
2022/06/13 02:00:51;;;;;;;3.13;2.80;;;;;;;;;;5086395;28;20660;-51
2022/06/13 02:03:20;;;;;;;5.10;4.77;;;;;;;;;;5085382;28;20259;-51
2022/06/13 02:05:55;;;;;;;3.27;2.90;;;;;;;;;;5090857;28;20751;-51
2022/06/13 02:08:22;;;;;;;3.83;3.00;;;;;;;;;;5077839;28;20627;-51
2022/06/13 02:10:54;;;;;;;4.77;3.60;;;;;;;;;;5093271;28;20199;-51
2022/06/13 02:13:41;;;;;;;3.43;3.13;;;;;;;;;;5084122;28;20176;-51
2022/06/13 02:16:09;;;;;;;3.23;2.80;;;;;;;;;;5095856;28;20183;-51
2022/06/13 02:18:39;;;;;;;4.17;2.60;;;;;;;;;;5079926;28;20342;-51
2022/06/13 02:21:08;;;;;;;3.47;2.93;;;;;;;;;;5086575;28;20191;-51
2022/06/13 02:23:38;;;;;;;3.23;2.87;;;;;;;;;;5085315;28;20191;-51
2022/06/13 02:26:07;;;;;;;3.17;2.87;;;;;;;;;;5085032;28;20214;-51
2022/06/13 02:28:43;;;;;;;3.00;2.70;;;;;;;;;;5082543;28;20207;-51
2022/06/13 02:31:14;;;;;;;2.97;2.73;;;;;;;;;;5082885;28;20186;-51
2022/06/13 02:34:10;;;;;;;3.07;2.77;;;;;;;;;;5084441;28;20190;-51
2022/06/13 02:36:39;;;;;;;3.50;2.77;;;;;;;;;;5056475;28;20629;-51
2022/06/13 02:39:11;;;;;;;3.63;3.20;;;;;;;;;;5083350;28;20237;-51
2022/06/13 02:41:40;;;;;;;3.13;2.83;;;;;;;;;;5086851;28;20627;-51
2022/06/13 02:44:09;;;;;;;3.97;3.07;;;;;;;;;;5085657;28;20510;-51
2022/06/13 02:46:39;;;;;;;3.57;2.70;;;;;;;;;;5082133;28;20210;-50
2022/06/13 02:49:29;;;;;;;3.40;2.77;;;;;;;;;;5075631;28;20247;-51
2022/06/13 02:52:13;;;;;;;4.27;2.97;;;;;;;;;;5053420;28;20227;-51
2022/06/13 02:54:48;;;;;;;3.37;2.97;;;;;;;;;;5064644;28;20725;-51
2022/06/13 02:57:23;;;;;;;4.53;2.77;;;;;;;;;;5063491;28;20654;-50
2022/06/13 02:59:52;;;;;;;3.20;2.53;;;;;;;;;;5068208;28;20465;-51
2022/06/13 03:02:23;;;;;;;4.73;4.30;;;;;;;;;;5066999;28;20176;-51
2022/06/13 03:04:55;;;;;;;2.97;2.77;;;;;;;;;;5069195;28;20631;-51
2022/06/13 03:07:27;;;;;;;3.33;2.90;;;;;;;;;;5067344;28;20266;-51
2022/06/13 03:10:00;;;;;;;3.27;2.97;;;;;;;;;;5067627;28;20532;-51
2022/06/13 03:12:33;;;;;;;3.73;3.33;;;;;;;;;;5067523;28;20180;-50
2022/06/13 03:15:19;;;;;;;4.37;3.10;;;;;;;;;;5061023;28;20180;-50
2022/06/13 03:17:48;;;;;;;4.33;3.20;;;;;;;;;;5051966;28;20239;-51
2022/06/13 03:20:19;;;;;;;4.63;2.83;;;;;;;;;;5068433;28;20184;-51
2022/06/13 03:22:51;;;;;;;3.40;2.80;;;;;;;;;;5067449;28;20184;-51
2022/06/13 03:25:25;;;;;;;3.30;3.00;;;;;;;;;;5062650;28;20689;-51
2022/06/13 03:27:54;;;;;;;3.37;2.93;;;;;;;;;;5062349;28;20642;-51
2022/06/13 03:30:22;;;;;;;3.27;2.97;;;;;;;;;;5068292;28;20208;-51
2022/06/13 03:35:41;;;;;;;2.90;2.63;;;;;;;;;;5068383;28;20283;-50
2022/06/13 03:38:08;;;;;;;3.47;3.17;;;;;;;;;;5048593;28;20181;-51
2022/06/13 03:40:35;;;;;;;3.00;2.70;;;;;;;;;;5065864;28;20634;-50
2022/06/13 03:43:06;;;;;;;3.73;2.70;;;;;;;;;;5068063;28;20234;-51
2022/06/13 03:45:36;;;;;;;3.30;2.93;;;;;;;;;;5062549;28;20574;-51
2022/06/13 03:48:10;;;;;;;5.20;3.03;;;;;;;;;;5066900;28;20346;-51
2022/06/13 03:50:42;;;;;;;3.60;2.90;;;;;;;;;;5077366;28;20701;-50
2022/06/13 03:53:28;;;;;;;3.13;2.70;;;;;;;;;;5067787;28;20613;-50
2022/06/13 03:56:14;;;;;;;2.93;2.63;;;;;;;;;;5079366;28;20217;-51
2022/06/13 03:58:43;;;;;;;5.37;3.13;;;;;;;;;;5062250;28;20514;-51
2022/06/13 04:01:13;;;;;;;4.57;3.80;;;;;;;;;;5069214;28;20908;-51
2022/06/13 04:03:40;;;;;;;4.73;3.00;;;;;;;;;;5066668;28;20581;-51
2022/06/13 04:06:26;;;;;;;3.60;2.70;;;;;;;;;;5066952;28;20240;-51
2022/06/13 04:08:52;;;;;;;2.80;2.60;;;;;;;;;;5065142;28;20643;-50
2022/06/13 04:11:22;;;;;;;4.57;2.97;;;;;;;;;;5065539;28;20196;-51
2022/06/13 04:13:48;;;;;;;2.80;2.47;;;;;;;;;;5065215;28;20549;-51
2022/06/13 04:16:27;;;;;;;4.30;3.17;;;;;;;;;;5080571;28;20237;-51
2022/06/13 04:19:03;;;;;;;4.13;3.10;;;;;;;;;;5066030;28;20188;-51
2022/06/13 04:21:55;;;;;;;3.23;2.80;;;;;;;;;;5078955;28;20300;-50
2022/06/13 04:24:27;;;;;;;3.63;2.90;;;;;;;;;;5064780;28;20215;-51
2022/06/13 04:27:05;;;;;;;4.90;3.60;;;;;;;;;;5065706;28;20204;-50
2022/06/13 04:29:40;;;;;;;3.57;3.27;;;;;;;;;;5060990;28;20169;-50
2022/06/13 04:32:10;;;;;;;4.50;2.90;;;;;;;;;;5064556;28;20175;-50
2022/06/13 04:34:39;;;;;;;3.30;2.93;;;;;;;;;;5073692;28;20749;-50
2022/06/13 04:37:06;;;;;;;3.87;3.40;;;;;;;;;;5072741;28;20331;-50
2022/06/13 04:39:34;;;;;;;5.00;3.40;;;;;;;;;;5065120;28;20188;-50
2022/06/13 04:42:01;;;;;;;4.50;3.00;;;;;;;;;;5066766;28;20180;-50
2022/06/13 04:44:29;;;;;;;4.50;3.37;;;;;;;;;;5071836;28;20241;-49
2022/06/13 04:46:56;;;;;;;3.70;2.70;;;;;;;;;;5065220;28;20555;-50
2022/06/13 04:49:42;;;;;;;5.03;3.10;;;;;;;;;;5081856;28;20211;-50
2022/06/13 04:52:15;;;;;;;4.10;3.73;;;;;;;;;;5093454;28;20661;-52
2022/06/13 04:54:49;;;;;;;6.33;2.93;;;;;;;;;;5076636;28;20180;-51
2022/06/13 04:57:16;;;;;;;3.87;2.87;;;;;;;;;;5091591;28;20186;-51
2022/06/13 04:59:43;;;;;;;7.20;3.10;;;;;;;;;;5093896;28;20215;-52
2022/06/13 05:02:12;;;;;;;5.00;4.47;;;;;;;;;;5085971;28;20180;-51
2022/06/13 05:04:38;;;;;;;4.83;3.37;;;;;;;;;;5087552;28;20240;-51
2022/06/13 05:07:18;;;;;;;4.63;3.37;;;;;;;;;;5080886;28;20575;-52
2022/06/13 05:09:52;;;;;;;4.73;3.53;;;;;;;;;;5093683;28;20187;-51
2022/06/13 05:12:39;;;;;;;4.67;3.07;;;;;;;;;;5083884;28;20217;-50
2022/06/13 05:15:08;;;;;;;3.33;2.90;;;;;;;;;;5065506;28;20176;-51
2022/06/13 05:17:46;;;;;;;4.07;3.07;;;;;;;;;;5083395;28;20308;-51
2022/06/13 05:20:31;;;;;;;4.17;3.20;;;;;;;;;;5087832;28;20180;-51
2022/06/13 05:23:06;;;;;;;6.00;3.33;;;;;;;;;;5086074;28;20285;-51
2022/06/13 05:25:46;;;;;;;3.60;2.80;;;;;;;;;;5100002;28;20234;-51
2022/06/13 05:28:29;;;;;;;4.37;3.27;;;;;;;;;;5086752;28;20203;-51
2022/06/13 05:30:56;;;;;;;4.87;3.07;;;;;;;;;;5094408;28;20236;-51
2022/06/13 05:33:26;;;;;;;3.77;3.20;;;;;;;;;;5079317;28;20179;-51
2022/06/13 05:35:54;;;;;;;3.80;3.33;;;;;;;;;;5085378;28;20197;-52
2022/06/13 05:38:41;;;;;;;4.67;2.97;;;;;;;;;;5084167;28;20258;-52
2022/06/13 05:41:08;;;;;;;5.13;3.37;;;;;;;;;;5081095;28;20579;-52
2022/06/13 05:43:34;;;;;;;4.47;2.80;;;;;;;;;;5066151;28;20203;-53
2022/06/13 05:46:00;;;;;;;4.90;3.07;;;;;;;;;;5092803;28;20227;-52
2022/06/13 05:48:33;;;;;;;5.70;3.37;;;;;;;;;;5065818;28;20245;-52
2022/06/13 05:51:00;;;;;;;4.40;2.90;;;;;;;;;;5082947;28;20199;-52
2022/06/13 05:53:27;;;;;;;5.50;3.23;;;;;;;;;;5065953;28;20188;-52
2022/06/13 05:55:56;;;;;;;4.97;3.07;;;;;;;;;;5064430;28;20190;-52
2022/06/13 05:58:22;;;;;;;3.40;2.97;;;;;;;;;;5084963;28;20186;-52
2022/06/13 06:00:52;;;;;;;4.53;3.27;;;;;;;;;;5086587;28;20179;-52
2022/06/13 06:03:18;;;;;;;6.70;3.47;;;;;;;;;;5068133;28;20179;-52
2022/06/13 06:05:45;;;;;;;4.57;3.30;;;;;;;;;;5085418;28;20544;-52
2022/06/13 06:08:30;;;;;;;3.67;2.80;;;;;;;;;;5084434;28;20179;-53
2022/06/13 06:10:57;;;;;;;4.53;3.43;;;;;;;;;;5083909;28;20179;-53
2022/06/13 06:13:24;;;;;;;3.00;2.70;;;;;;;;;;5080180;28;20164;-55
2022/06/13 06:15:51;;;;;;;4.60;3.50;;;;;;;;;;5087490;28;20183;-52
2022/06/13 06:18:18;;;;;;;5.27;3.43;;;;;;;;;;5064300;28;20736;-52
2022/06/13 06:20:44;;;;;;;6.20;3.60;;;;;;;;;;5065849;28;20692;-53
2022/06/13 06:23:12;;;;;;;8.37;4.50;;;;;;;;;;5085827;28;20179;-52
2022/06/13 06:25:39;;;;;;;6.37;3.83;;;;;;;;;;5101644;28;20624;-52
2022/06/13 06:28:06;;;;;;;9.43;4.17;;;;;;;;;;5088461;28;20653;-53
2022/06/13 06:30:33;;;;;;;5.37;3.70;;;;;;;;;;5076208;28;20629;-53
2022/06/13 06:32:59;;;;;;;7.27;4.03;;;;;;;;;;5095581;28;20173;-53
2022/06/13 06:35:27;;;;;;;10.50;4.40;;;;;;;;;;5089846;28;20171;-52
2022/06/13 06:37:54;;;;;;;6.30;4.83;;;;;;;;;;5066890;28;20487;-53
2022/06/13 06:40:22;;;;;;;5.37;3.67;;;;;;;;;;5089009;28;20595;-54
2022/06/13 06:42:48;;;;;;;6.03;4.50;;;;;;;;;;5074447;28;20443;-52
2022/06/13 06:45:15;;;;;;;6.60;4.30;;;;;;;;;;5080590;28;20206;-52
2022/06/13 06:47:42;;;;;;;9.77;5.23;;;;;;;;;;5045589;28;20618;-53
2022/06/13 06:50:13;;;;;;;10.30;5.23;;;;;;;;;;5076401;28;20595;-52
2022/06/13 06:52:39;;;;;;;11.80;5.53;;;;;;;;;;5106330;28;20155;-53
2022/06/13 07:00:37;;;;;;;9.00;5.07;;;;;;;;;;5080533;28;20179;-53
2022/06/13 07:03:03;;;;;;;5.73;4.40;;;;;;;;;;5075139;28;20175;-54
2022/06/13 07:05:30;;;;;;;8.97;4.90;;;;;;;;;;5085008;28;20200;-54
2022/06/13 07:07:56;;;;;;;6.53;4.83;;;;;;;;;;5079196;28;20172;-54
2022/06/13 07:10:22;;;;;;;8.07;5.57;;;;;;;;;;5087496;28;20176;-53
2022/06/13 07:12:49;;;;;;;9.87;5.97;;;;;;;;;;5072277;28;20178;-53
2022/06/13 07:15:15;;;;;;;8.70;5.70;;;;;;;;;;5070420;28;20189;-53
2022/06/13 07:17:42;;;;;;;10.20;5.57;;;;;;;;;;5084580;28;20571;-53
2022/06/13 07:20:09;;;;;;;9.90;5.67;;;;;;;;;;5085494;28;20179;-52
2022/06/13 07:22:35;;;;;;;8.40;5.57;;;;;;;;;;5066490;28;20724;-52
2022/06/13 07:25:02;;;;;;;12.10;5.83;;;;;;;;;;5077770;28;20180;-52
2022/06/13 07:27:28;;;;;;;11.60;7.50;;;;;;;;;;5082814;28;20211;-53
2022/06/13 07:29:54;;;;;;;13.03;7.17;;;;;;;;;;5077091;28;20179;-53
2022/06/13 07:32:22;;;;;;;10.47;5.90;;;;;;;;;;5084798;28;20199;-53
2022/06/13 07:34:50;;;;;;;11.37;6.97;;;;;;;;;;5089637;28;20172;-53
2022/06/13 07:38:16;;;;;;;13.83;6.90;;;;;;;;;;5085615;28;20275;-53
2022/06/13 07:40:05;;;;;;;13.20;7.27;;;;;;;;;;5083716;28;20633;-53
2022/06/13 07:42:43;;;;;;;11.33;6.57;;;;;;;;;;5080378;28;20190;-53
2022/06/13 07:45:17;;;;;;;10.63;7.70;;;;;;;;;;5065173;28;20187;-53
2022/06/13 07:47:44;;;;;;;10.50;7.07;;;;;;;;;;5099129;28;20455;-52
2022/06/13 07:50:21;;;;;;;11.27;7.30;;;;;;;;;;5070746;28;20232;-53
2022/06/13 07:52:48;;;;;;;9.80;7.07;;;;;;;;;;5089141;28;20584;-54
2022/06/13 07:55:14;;;;;;;10.13;7.27;;;;;;;;;;5088878;28;20174;-53
2022/06/13 07:57:40;;;;;;;8.37;6.73;;;;;;;;;;5082177;28;20187;-53
2022/06/13 08:00:08;;;;;;;10.57;6.97;;;;;;;;;;5087014;28;20179;-53
2022/06/13 08:02:35;;;;;;;8.90;6.27;;;;;;;;;;5069953;28;20495;-53
2022/06/13 08:05:01;;;;;;;10.33;6.23;;;;;;;;;;5086664;28;20505;-53
2022/06/13 08:07:27;;;;;;;8.90;6.50;;;;;;;;;;5088802;28;20200;-53
2022/06/13 08:09:53;;;;;;;12.57;6.50;;;;;;;;;;5088479;28;20175;-53
2022/06/13 08:12:21;;;;;;;8.07;6.10;;;;;;;;;;5088384;28;20233;-54
2022/06/13 08:14:48;;;;;;;9.40;6.53;;;;;;;;;;5077955;28;20611;-54
2022/06/13 08:17:19;;;;;;;9.37;6.50;;;;;;;;;;5067763;28;20338;-54
2022/06/13 08:19:50;;;;;;;9.53;6.37;;;;;;;;;;5096363;28;20588;-53
2022/06/13 08:22:16;;;;;;;8.73;5.80;;;;;;;;;;5063486;28;20709;-55
2022/06/13 08:24:43;;;;;;;10.60;6.70;;;;;;;;;;5095629;28;20183;-55
2022/06/13 08:27:09;;;;;;;9.60;6.23;;;;;;;;;;5070523;28;20207;-55
2022/06/13 08:29:35;;;;;;;7.70;5.93;;;;;;;;;;5092725;28;20179;-55
2022/06/13 08:32:02;;;;;;;11.47;6.70;;;;;;;;;;5069235;28;20582;-54
2022/06/13 08:34:29;;;;;;;11.53;6.27;;;;;;;;;;5072737;28;20188;-55
2022/06/13 08:36:56;;;;;;;7.87;5.87;;;;;;;;;;5088736;28;20729;-55
2022/06/13 08:39:25;;;;;;;11.93;5.83;;;;;;;;;;5085106;28;20206;-54
2022/06/13 08:41:55;;;;;;;9.40;5.03;;;;;;;;;;5097185;28;20251;-54
2022/06/13 08:44:38;;;;;;;8.53;5.03;;;;;;;;;;5073264;28;20654;-54
2022/06/13 08:47:07;;;;;;;8.77;5.60;;;;;;;;;;5087627;28;20473;-53
2022/06/13 08:49:34;;;;;;;8.37;5.40;;;;;;;;;;5068757;28;20289;-53
2022/06/13 08:52:18;;;;;;;9.17;5.73;;;;;;;;;;5084109;28;20588;-53
2022/06/13 08:54:48;;;;;;;8.83;5.00;;;;;;;;;;5087831;28;20176;-52
2022/06/13 08:57:14;;;;;;;7.60;5.37;;;;;;;;;;5074946;28;20181;-54
2022/06/13 08:59:44;;;;;;;8.90;4.50;;;;;;;;;;5072566;28;20226;-53
2022/06/13 09:02:19;;;;;;;8.50;5.10;;;;;;;;;;5087269;28;20183;-53
2022/06/13 09:04:49;;;;;;;6.73;4.40;;;;;;;;;;5088218;28;20210;-53
2022/06/13 09:07:18;;;;;;;8.13;5.03;;;;;;;;;;5068939;28;20225;-53
2022/06/13 09:09:54;;;;;;;7.00;5.03;;;;;;;;;;5061430;28;20709;-53
2022/06/13 09:12:31;;;;;;;8.43;4.73;;;;;;;;;;5080880;28;20195;-53
2022/06/13 09:15:10;;;;;;;8.33;4.77;;;;;;;;;;5093631;28;20559;-53
2022/06/13 09:17:43;;;;;;;6.47;4.00;;;;;;;;;;5063423;28;20699;-54
2022/06/13 09:20:13;;;;;;;10.80;4.70;;;;;;;;;;5091925;28;20172;-53
2022/06/13 09:22:55;;;;;;;8.83;4.40;;;;;;;;;;5085263;28;20185;-54
2022/06/13 09:25:39;;;;;;;8.23;4.07;;;;;;;;;;5063365;28;20180;-53
2022/06/13 09:28:08;;;;;;;7.03;4.47;;;;;;;;;;5082843;28;20172;-54
2022/06/13 09:30:36;;;;;;;8.53;4.40;;;;;;;;;;5077878;28;20479;-53
2022/06/13 09:33:11;;;;;;;8.50;4.77;;;;;;;;;;5082369;28;20191;-53
2022/06/13 09:35:43;;;;;;;7.63;4.40;;;;;;;;;;5064965;28;20602;-53
2022/06/13 09:38:09;;;;;;;6.60;4.13;;;;;;;;;;5081340;28;20936;-53
2022/06/13 09:40:55;;;;;;;7.40;4.23;;;;;;;;;;5085486;28;20175;-52
2022/06/13 09:43:26;;;;;;;7.97;3.93;;;;;;;;;;5068537;28;20171;-52
2022/06/13 09:45:58;;;;;;;8.03;4.00;;;;;;;;;;5087291;28;20196;-53
2022/06/13 09:48:30;;;;;;;9.80;4.17;;;;;;;;;;5050131;28;20224;-53
2022/06/13 09:51:15;;;;;;;7.27;3.70;;;;;;;;;;5064545;28;20223;-53
2022/06/13 09:54:08;;;;;;;6.40;3.63;;;;;;;;;;5063595;28;20790;-52
2022/06/13 09:56:45;;;;;;;9.27;3.73;;;;;;;;;;5033496;28;20202;-53
2022/06/13 09:59:21;;;;;;;7.73;3.70;;;;;;;;;;5058856;28;20685;-52
2022/06/13 10:01:59;;;;;;;5.27;3.43;;;;;;;;;;5096986;28;20637;-53
2022/06/13 10:04:44;;;;;;;7.73;3.17;;;;;;;;;;5086609;28;20520;-53
2022/06/13 10:07:37;;;;;;;7.00;3.40;;;;;;;;;;5098530;28;20192;-53
2022/06/13 10:10:18;;;;;;;5.20;3.27;;;;;;;;;;5078029;28;20724;-52
2022/06/13 10:13:05;;;;;;;7.37;3.53;;;;;;;;;;5085091;28;20649;-52
2022/06/13 10:15:37;;;;;;;9.20;3.93;;;;;;;;;;5082580;28;20185;-53
2022/06/13 10:18:13;;;;;;;6.10;3.97;;;;;;;;;;5087740;28;20437;-53
2022/06/13 10:20:46;;;;;;;7.77;3.67;;;;;;;;;;5095097;28;20296;-53
2022/06/13 10:23:22;;;;;;;6.50;3.17;;;;;;;;;;5079379;28;20168;-53
2022/06/13 10:25:57;;;;;;;8.20;4.20;;;;;;;;;;5090527;28;20679;-53
2022/06/13 10:28:33;;;;;;;4.20;3.23;;;;;;;;;;5086906;28;20791;-53
2022/06/13 10:31:04;;;;;;;4.57;3.03;;;;;;;;;;5091573;28;20587;-54
2022/06/13 10:33:40;;;;;;;3.83;2.77;;;;;;;;;;5087043;28;20160;-53
2022/06/13 10:36:21;;;;;;;7.37;3.10;;;;;;;;;;5070342;28;20167;-53
2022/06/13 10:38:56;;;;;;;5.20;3.00;;;;;;;;;;5082226;28;20653;-53
2022/06/13 10:41:24;;;;;;;4.67;3.17;;;;;;;;;;5093720;28;20707;-54
2022/06/13 10:43:50;;;;;;;4.03;2.43;;;;;;;;;;5085395;28;20610;-52
2022/06/13 10:46:16;;;;;;;4.97;2.40;;;;;;;;;;5083919;28;20192;-53
2022/06/13 10:48:48;;;;;;;3.27;2.50;;;;;;;;;;5085885;28;20160;-53
2022/06/13 10:51:15;;;;;;;6.97;2.97;;;;;;;;;;5063899;28;20239;-57
2022/06/13 10:54:01;;;;;;;5.87;2.23;;;;;;;;;;5083917;28;20228;-54
2022/06/13 10:56:36;;;;;;;6.37;2.73;;;;;;;;;;5069418;28;20208;-54
2022/06/13 10:59:02;;;;;;;3.80;2.00;;;;;;;;;;5079661;28;20646;-53
2022/06/13 11:01:29;;;;;;;9.93;2.83;;;;;;;;;;5079144;28;20254;-54
2022/06/13 11:04:01;;;;;;;4.10;2.33;;;;;;;;;;5083816;28;20187;-53
2022/06/13 11:06:40;;;;;;;6.83;2.87;;;;;;;;;;5096121;28;20536;-54
2022/06/13 11:09:23;;;;;;;7.07;2.50;;;;;;;;;;5081514;28;20172;-53
2022/06/13 11:11:57;;;;;;;3.97;2.10;;;;;;;;;;5066647;28;20635;-53
2022/06/13 11:23:04;;;;;;;3.43;2.43;;;;;;;;;;5084625;28;20215;-53
2022/06/13 11:25:31;;;;;;;2.93;2.07;;;;;;;;;;5065010;28;20175;-53
2022/06/13 11:28:25;;;;;;;3.13;1.90;;;;;;;;;;5085211;28;20519;-54
2022/06/13 11:31:00;;;;;;;2.87;1.90;;;;;;;;;;5082559;28;20196;-54
2022/06/13 11:33:28;;;;;;;2.77;1.80;;;;;;;;;;5065456;28;20179;-53
2022/06/13 11:35:58;;;;;;;3.37;1.83;;;;;;;;;;5084825;28;20191;-53
2022/06/13 11:38:35;;;;;;;3.50;1.60;;;;;;;;;;5059665;28;20179;-54
2022/06/13 11:41:14;;;;;;;3.53;2.20;;;;;;;;;;5077742;28;20246;-54
2022/06/13 11:43:50;;;;;;;5.23;2.13;;;;;;;;;;5069715;28;20676;-54
2022/06/13 11:46:30;;;;;;;3.13;1.87;;;;;;;;;;5087793;28;20191;-54
2022/06/13 11:49:00;;;;;;;4.87;1.73;;;;;;;;;;5055307;28;20168;-54
2022/06/13 11:51:28;;;;;;;2.53;1.80;;;;;;;;;;5084161;28;20232;-55
2022/06/13 11:53:56;;;;;;;1.87;1.67;;;;;;;;;;5065770;28;20175;-53
2022/06/13 11:56:33;;;;;;;2.00;1.80;;;;;;;;;;5063124;28;20646;-53
2022/06/13 11:59:05;;;;;;;5.00;1.50;;;;;;;;;;5066358;28;20701;-54
2022/06/13 12:01:31;;;;;;;3.67;1.80;;;;;;;;;;5048318;28;21033;-54
2022/06/13 12:04:18;;;;;;;1.83;1.53;;;;;;;;;;5084754;28;20188;-54
2022/06/13 12:06:56;;;;;;;2.23;2.03;;;;;;;;;;5064367;28;20589;-54
2022/06/13 12:09:26;;;;;;;1.67;1.53;;;;;;;;;;5084952;28;20178;-54
2022/06/13 12:11:58;;;;;;;2.30;1.70;;;;;;;;;;5085267;28;20173;-55
2022/06/13 12:14:28;;;;;;;2.07;1.50;;;;;;;;;;5087734;28;20684;-54
2022/06/13 12:17:00;;;;;;;2.63;1.50;;;;;;;;;;5086083;28;20173;-54
2022/06/13 12:19:31;;;;;;;2.80;1.30;;;;;;;;;;5085206;28;20243;-54
2022/06/13 12:22:16;;;;;;;3.90;1.53;;;;;;;;;;5084301;28;20206;-55
2022/06/13 12:24:59;;;;;;;1.63;1.40;;;;;;;;;;5063291;28;20186;-55
2022/06/13 12:27:31;;;;;;;2.50;1.70;;;;;;;;;;5068773;28;20375;-53
2022/06/13 12:30:16;;;;;;;1.50;1.40;;;;;;;;;;5091882;28;20186;-54
2022/06/13 12:32:48;;;;;;;2.63;1.70;;;;;;;;;;5082249;28;20606;-53
2022/06/13 12:35:24;;;;;;;3.10;1.70;;;;;;;;;;5062836;28;20179;-53
2022/06/13 12:38:19;;;;;;;3.53;1.87;;;;;;;;;;5078806;28;20208;-53
2022/06/13 12:40:46;;;;;;;2.37;1.73;;;;;;;;;;5066382;28;20270;-54
2022/06/13 12:43:27;;;;;;;3.10;1.70;;;;;;;;;;5085249;28;20233;-55
2022/06/13 12:46:19;;;;;;;2.00;1.50;;;;;;;;;;5083486;28;20215;-53
2022/06/13 12:48:51;;;;;;;1.90;1.40;;;;;;;;;;5055063;28;20330;-54
2022/06/13 12:51:34;;;;;;;4.32;1.42;;;;;;;;;;5083435;28;20813;-53
2022/06/13 12:54:15;;;;;;;1.60;1.47;;;;;;;;;;5078717;28;20195;-54
2022/06/13 12:56:52;;;;;;;2.63;1.80;;;;;;;;;;5076163;28;20185;-55
2022/06/13 12:59:18;;;;;;;2.07;1.60;;;;;;;;;;5082004;28;20183;-54
2022/06/13 13:01:57;;;;;;;2.73;1.80;;;;;;;;;;5080370;28;20191;-54
2022/06/13 13:04:23;;;;;;;3.33;1.70;;;;;;;;;;5078520;28;20506;-54
2022/06/13 13:06:49;;;;;;;2.03;1.70;;;;;;;;;;5083966;28;20289;-53
2022/06/13 13:09:35;;;;;;;2.03;1.83;;;;;;;;;;5082386;28;20217;-54
2022/06/13 13:12:10;;;;;;;3.37;2.00;;;;;;;;;;5086791;28;20189;-54
2022/06/13 13:14:55;;;;;;;2.23;1.53;;;;;;;;;;5079450;28;20497;-54
2022/06/13 13:17:30;;;;;;;2.00;1.50;;;;;;;;;;5082287;28;20185;-53
2022/06/13 13:20:07;;;;;;;5.40;1.67;;;;;;;;;;5081051;28;20184;-53
2022/06/13 13:22:39;;;;;;;1.70;1.60;;;;;;;;;;5079789;28;20193;-53
2022/06/13 13:25:14;;;;;;;2.30;1.90;;;;;;;;;;5080857;28;20304;-53
2022/06/13 13:28:04;;;;;;;2.67;1.80;;;;;;;;;;5082168;28;20751;-53
2022/06/13 13:30:44;;;;;;;3.70;1.60;;;;;;;;;;5072457;28;20198;-53
2022/06/13 13:33:29;;;;;;;2.80;1.47;;;;;;;;;;5083798;28;20251;-53
2022/06/13 13:35:56;;;;;;;1.83;1.73;;;;;;;;;;5081962;28;20260;-54
2022/06/13 13:38:26;;;;;;;2.80;1.60;;;;;;;;;;5078483;28;20191;-53
2022/06/13 13:40:58;;;;;;;3.37;1.80;;;;;;;;;;5082499;28;20239;-53
2022/06/13 13:43:43;;;;;;;2.13;1.80;;;;;;;;;;5080155;28;20235;-53
2022/06/13 13:46:12;;;;;;;1.77;1.60;;;;;;;;;;5079696;28;20702;-53
2022/06/13 13:48:46;;;;;;;3.73;2.10;;;;;;;;;;5077926;28;20432;-53
2022/06/13 13:51:12;;;;;;;2.20;1.77;;;;;;;;;;5093156;28;20904;-53
2022/06/13 13:53:44;;;;;;;1.50;1.40;;;;;;;;;;5082445;28;20263;-53
2022/06/13 13:56:20;;;;;;;3.37;1.97;;;;;;;;;;5081595;28;20278;-53
2022/06/13 13:58:47;;;;;;;3.13;1.87;;;;;;;;;;5082907;28;20179;-53
2022/06/13 14:01:20;;;;;;;2.90;2.60;;;;;;;;;;5081370;28;20179;-52
2022/06/13 14:03:48;;;;;;;4.00;1.60;;;;;;;;;;5078138;28;20188;-52
2022/06/13 14:06:18;;;;;;;3.37;1.60;;;;;;;;;;5060278;28;20572;-52
2022/06/13 14:08:46;;;;;;;3.77;1.97;;;;;;;;;;5062353;28;20179;-53
2022/06/13 14:11:14;;;;;;;2.47;1.63;;;;;;;;;;5086718;28;20180;-53
2022/06/13 14:13:41;;;;;;;3.63;1.87;;;;;;;;;;5082222;28;20251;-53
2022/06/13 14:16:07;;;;;;;2.10;1.60;;;;;;;;;;5092782;28;20709;-53
2022/06/13 14:18:38;;;;;;;2.87;1.90;;;;;;;;;;5061829;28;20182;-52
2022/06/13 14:21:12;;;;;;;3.30;2.03;;;;;;;;;;5084400;28;20223;-53
2022/06/13 14:23:43;;;;;;;3.50;1.93;;;;;;;;;;5059372;28;20274;-52
2022/06/13 14:26:18;;;;;;;3.80;1.80;;;;;;;;;;5077316;28;20718;-52
2022/06/13 14:28:50;;;;;;;4.03;2.20;;;;;;;;;;5083544;28;20179;-52
2022/06/13 14:31:16;;;;;;;6.97;2.00;;;;;;;;;;5084263;28;20228;-52
2022/06/13 14:36:54;;;;;;;2.80;1.83;;;;;;;;;;5082453;28;20225;-51
2022/06/13 14:39:34;;;;;;;2.50;1.80;;;;;;;;;;5081968;28;20191;-52
2022/06/13 14:42:07;;;;;;;1.90;1.50;;;;;;;;;;5083588;28;20645;-51
2022/06/13 14:44:37;;;;;;;2.00;1.57;;;;;;;;;;5088736;28;20182;-52
2022/06/13 14:47:24;;;;;;;3.43;1.70;;;;;;;;;;5082477;28;20206;-51
2022/06/13 14:49:54;;;;;;;3.87;1.60;;;;;;;;;;5083367;27;20528;-52
2022/06/13 14:52:21;;;;;;;2.97;1.93;;;;;;;;;;5079037;28;20264;-51
2022/06/13 14:54:47;;;;;;;2.37;1.90;;;;;;;;;;5081793;28;20594;-52
2022/06/13 14:57:28;;;;;;;1.73;1.50;;;;;;;;;;5085085;28;20179;-51
2022/06/13 15:00:06;;;;;;;2.87;1.90;;;;;;;;;;5084970;28;20180;-50
2022/06/13 15:02:34;;;;;;;4.73;1.87;;;;;;;;;;5085517;28;20585;-52
2022/06/13 15:05:04;;;;;;;2.10;1.90;;;;;;;;;;5093550;28;20797;-51
2022/06/13 15:07:36;;;;;;;4.40;1.60;;;;;;;;;;5086596;28;20204;-51
2022/06/13 15:10:06;;;;;;;3.07;1.93;;;;;;;;;;5087158;28;20214;-51
2022/06/13 15:12:41;;;;;;;2.20;1.57;;;;;;;;;;5085628;28;20204;-51
2022/06/13 15:15:17;;;;;;;3.63;1.90;;;;;;;;;;5084178;28;20232;-52
2022/06/13 15:17:43;;;;;;;2.97;2.13;;;;;;;;;;5088058;28;20684;-52
2022/06/13 15:20:21;;;;;;;2.10;1.70;;;;;;;;;;5091970;28;20189;-51
2022/06/13 15:22:51;;;;;;;3.33;1.80;;;;;;;;;;5084282;28;20181;-51
2022/06/13 15:25:34;;;;;;;6.13;2.53;;;;;;;;;;5083676;28;20192;-52
2022/06/13 15:28:00;;;;;;;4.43;2.33;;;;;;;;;;5068861;28;20748;-51
2022/06/13 15:30:31;;;;;;;1.60;1.50;;;;;;;;;;5085994;28;20191;-51
2022/06/13 15:33:05;;;;;;;3.47;2.00;;;;;;;;;;5082483;28;20675;-51
2022/06/13 15:35:42;;;;;;;2.37;1.80;;;;;;;;;;5062766;28;20259;-51
2022/06/13 15:38:13;;;;;;;3.93;2.03;;;;;;;;;;5083623;28;20594;-52